createdAt,value
2019-05-03T00:00:02.803Z,76.03
2019-05-03T00:02:52.288Z,75.23
2019-05-03T00:05:24.522Z,74.55
2019-05-03T00:07:56.160Z,74.76
2019-05-03T00:10:26.824Z,74.34
2019-05-03T00:12:57.489Z,74.40
2019-05-03T00:15:45.756Z,74.68
2019-05-03T00:18:16.972Z,75.02
2019-05-03T00:20:47.567Z,75.24
2019-05-03T00:23:18.493Z,75.64
2019-05-03T00:25:49.070Z,76.03
2019-05-03T00:28:21.576Z,76.42
2019-05-03T00:30:53.030Z,76.10
2019-05-03T00:33:24.260Z,76.63
2019-05-03T00:36:02.570Z,77.04
2019-05-03T00:38:33.310Z,77.05
2019-05-03T00:41:04.045Z,77.46
2019-05-03T00:43:34.679Z,77.53
2019-05-03T00:46:05.482Z,77.49
2019-05-03T00:48:36.001Z,77.66
2019-05-03T00:51:06.692Z,77.82
2019-05-03T00:53:37.377Z,78.71
2019-05-03T00:56:08.066Z,78.72
2019-05-03T00:58:53.078Z,79.13
2019-05-03T01:01:23.958Z,79.48
2019-05-03T01:03:54.501Z,80.11
2019-05-03T01:06:25.283Z,79.95
2019-05-03T01:08:55.897Z,80.37
2019-05-03T01:11:28.035Z,80.56
2019-05-03T01:14:02.257Z,80.95
2019-05-03T01:16:32.721Z,81.05
2019-05-03T01:19:03.318Z,81.20
2019-05-03T01:21:33.963Z,81.30
2019-05-03T01:24:04.615Z,81.08
2019-05-03T01:26:35.189Z,81.13
2019-05-03T01:29:07.250Z,81.25
2019-05-03T01:31:37.963Z,81.43
2019-05-03T01:34:08.475Z,81.98
2019-05-03T01:36:40.076Z,81.66
2019-05-03T01:39:12.627Z,81.88
2019-05-03T01:41:42.968Z,82.03
2019-05-03T01:44:14.006Z,82.37
2019-05-03T01:46:44.988Z,82.60
2019-05-03T01:49:19.912Z,82.95
2019-05-03T01:51:52.644Z,83.11
2019-05-03T01:54:23.447Z,83.12
2019-05-03T01:56:58.880Z,83.47
2019-05-03T01:59:26.570Z,83.69
2019-05-03T02:01:58.830Z,83.84
2019-05-03T02:04:32.244Z,83.69
2019-05-03T02:07:03.128Z,84.02
2019-05-03T02:09:33.813Z,84.22
2019-05-03T02:12:05.084Z,84.44
2019-05-03T02:14:35.646Z,84.68
2019-05-03T02:17:06.190Z,84.74
2019-05-03T02:19:36.818Z,84.93
2019-05-03T02:22:07.776Z,85.21
2019-05-03T02:24:38.327Z,84.91
2019-05-03T02:27:08.938Z,85.05
2019-05-03T02:29:39.571Z,85.13
2019-05-03T02:32:10.157Z,85.11
2019-05-03T02:34:43.585Z,85.36
2019-05-03T02:37:14.006Z,85.50
2019-05-03T02:39:45.026Z,85.66
2019-05-03T02:42:16.266Z,86.00
2019-05-03T02:44:47.021Z,86.37
2019-05-03T02:47:31.590Z,86.36
2019-05-03T02:50:05.820Z,86.42
2019-05-03T02:52:37.565Z,86.36
2019-05-03T02:55:10.394Z,85.95
2019-05-03T02:57:41.046Z,85.56
2019-05-03T03:00:16.344Z,85.32
2019-05-03T03:02:46.526Z,85.65
2019-05-03T03:05:17.086Z,85.80
2019-05-03T03:07:48.979Z,86.02
2019-05-03T03:10:19.487Z,86.05
2019-05-03T03:12:55.214Z,86.13
2019-05-03T03:15:26.332Z,85.96
2019-05-03T03:17:58.025Z,86.01
2019-05-03T03:20:30.258Z,85.90
2019-05-03T03:23:06.010Z,86.22
2019-05-03T03:25:39.314Z,86.17
2019-05-03T03:28:12.905Z,85.87
2019-05-03T03:30:57.164Z,83.98
2019-05-03T03:33:28.143Z,83.19
2019-05-03T03:36:01.193Z,83.16
2019-05-03T03:38:28.948Z,81.25
2019-05-03T03:41:01.403Z,79.38
2019-05-03T03:43:35.323Z,77.78
2019-05-03T03:46:06.743Z,78.04
2019-05-03T03:48:40.229Z,77.60
2019-05-03T03:51:12.295Z,76.92
2019-05-03T03:53:46.474Z,75.24
2019-05-03T03:56:20.145Z,75.67
2019-05-03T03:58:52.194Z,75.73
2019-05-03T04:01:22.777Z,75.64
2019-05-03T04:03:56.051Z,74.61
2019-05-03T04:06:27.927Z,74.66
2019-05-03T04:08:58.580Z,73.22
2019-05-03T04:11:29.260Z,72.75
2019-05-03T04:14:00.053Z,71.95
2019-05-03T04:16:38.135Z,71.68
2019-05-03T04:19:11.226Z,70.28
2019-05-03T04:21:41.935Z,70.95
2019-05-03T04:24:12.681Z,70.62
2019-05-03T04:26:45.371Z,69.71
2019-05-03T04:29:16.276Z,68.27
2019-05-03T04:31:46.955Z,67.00
2019-05-03T04:34:17.673Z,68.81
2019-05-03T04:36:48.520Z,66.54
2019-05-03T04:39:25.641Z,66.24
2019-05-03T04:41:56.786Z,65.22
2019-05-03T04:44:27.395Z,67.34
2019-05-03T04:46:58.494Z,68.62
2019-05-03T04:49:29.288Z,67.77
2019-05-03T04:51:59.994Z,64.72
2019-05-03T04:54:35.579Z,65.07
2019-05-03T04:57:07.183Z,65.08
2019-05-03T04:59:37.750Z,64.99
2019-05-03T05:02:08.341Z,63.12
2019-05-03T05:04:39.613Z,61.79
2019-05-03T05:07:10.249Z,63.26
2019-05-03T05:09:40.954Z,64.60
2019-05-03T05:12:11.541Z,63.13
2019-05-03T05:14:42.139Z,64.04
2019-05-03T05:17:16.274Z,64.88
2019-05-03T05:20:05.306Z,61.73
2019-05-03T05:22:36.059Z,64.07
2019-05-03T05:25:09.915Z,62.81
2019-05-03T05:28:04.729Z,63.11
2019-05-03T05:30:35.687Z,63.70
2019-05-03T05:33:07.986Z,65.45
2019-05-03T05:35:38.758Z,63.54
2019-05-03T05:38:09.446Z,61.67
2019-05-03T05:40:39.966Z,58.55
2019-05-03T05:43:10.654Z,59.78
2019-05-03T05:45:41.389Z,60.40
2019-05-03T05:48:19.422Z,59.73
2019-05-03T05:50:50.023Z,58.42
2019-05-03T05:53:20.625Z,60.27
2019-05-03T05:55:54.825Z,59.66
2019-05-03T05:58:34.635Z,59.07
2019-05-03T06:01:07.473Z,60.02
2019-05-03T06:03:37.992Z,54.81
2019-05-03T06:06:10.257Z,54.17
2019-05-03T06:08:44.539Z,53.99
2019-05-03T06:11:34.706Z,52.10
2019-05-03T06:14:16.408Z,55.43
2019-05-03T06:17:00.413Z,55.04
2019-05-03T06:19:34.533Z,55.44
2019-05-03T06:22:18.938Z,52.89
2019-05-03T06:24:51.235Z,53.47
2019-05-03T06:27:24.439Z,50.57
2019-05-03T06:29:56.735Z,51.82
2019-05-03T06:32:28.997Z,54.01
2019-05-03T06:34:59.620Z,52.08
2019-05-03T06:37:32.064Z,52.84
2019-05-03T06:40:05.824Z,55.49
2019-05-03T06:42:51.242Z,56.17
2019-05-03T06:45:11.796Z,56.20
2019-05-03T06:47:48.073Z,56.08
2019-05-03T06:50:19.599Z,55.01
2019-05-03T06:52:47.801Z,54.07
2019-05-03T06:55:18.387Z,54.98
2019-05-03T06:57:49.886Z,53.02
2019-05-03T07:00:24.778Z,52.45
2019-05-03T07:02:59.786Z,52.98
2019-05-03T07:05:32.098Z,52.90
2019-05-03T07:08:05.137Z,53.12
2019-05-03T07:10:40.531Z,53.13
2019-05-03T07:13:11.212Z,51.46
2019-05-03T07:15:41.823Z,51.95
2019-05-03T07:18:12.344Z,52.47
2019-05-03T07:20:50.717Z,49.69
2019-05-03T07:23:21.384Z,49.61
2019-05-03T07:25:52.050Z,49.38
2019-05-03T07:28:24.712Z,49.41
2019-05-03T07:30:55.147Z,48.03
2019-05-03T07:33:34.680Z,49.67
2019-05-03T07:36:06.112Z,50.33
2019-05-03T07:38:36.725Z,49.73
2019-05-03T07:41:07.463Z,49.40
2019-05-03T07:43:38.199Z,47.76
2019-05-03T07:46:09.010Z,48.31
2019-05-03T07:48:39.663Z,49.13
2019-05-03T07:51:10.246Z,48.97
2019-05-03T07:53:41.018Z,48.41
2019-05-03T07:56:14.965Z,49.29
2019-05-03T07:58:59.427Z,48.15
2019-05-03T08:01:25.165Z,48.80
2019-05-03T08:03:55.938Z,47.31
2019-05-03T08:06:28.121Z,45.05
2019-05-03T08:08:58.946Z,43.30
2019-05-03T08:11:29.736Z,43.99
2019-05-03T08:14:00.779Z,44.90
2019-05-03T08:16:31.373Z,43.43
2019-05-03T08:19:02.010Z,42.65
2019-05-03T08:21:37.799Z,42.13
2019-05-03T08:24:06.434Z,40.97
2019-05-03T08:26:39.001Z,41.27
2019-05-03T08:29:16.133Z,40.96
2019-05-03T08:31:45.420Z,40.28
2019-05-03T08:34:25.778Z,39.46
2019-05-03T08:37:06.830Z,40.48
2019-05-03T08:39:38.539Z,41.41
2019-05-03T08:42:15.003Z,41.10
2019-05-03T08:44:45.717Z,41.74
2019-05-03T08:47:16.398Z,42.26
2019-05-03T08:49:46.942Z,43.64
2019-05-03T08:52:17.710Z,41.66
2019-05-03T08:54:48.337Z,41.24
2019-05-03T08:57:18.933Z,42.48
2019-05-03T08:59:49.608Z,43.00
2019-05-03T09:02:20.425Z,43.22
2019-05-03T09:04:51.051Z,42.40
2019-05-03T09:07:21.856Z,40.62
2019-05-03T09:09:55.025Z,41.09
2019-05-03T09:12:25.723Z,42.33
2019-05-03T09:14:56.483Z,41.90
2019-05-03T09:17:27.143Z,42.53
2019-05-03T09:19:57.725Z,43.42
2019-05-03T09:22:28.422Z,42.90
2019-05-03T09:24:58.972Z,43.43
2019-05-03T09:27:29.571Z,43.69
2019-05-03T09:30:00.472Z,44.05
2019-05-03T09:32:31.134Z,44.04
2019-05-03T09:35:01.721Z,44.17
2019-05-03T09:37:32.502Z,42.96
2019-05-03T09:40:04.488Z,41.79
2019-05-03T09:42:35.312Z,41.85
2019-05-03T09:45:07.431Z,41.36
2019-05-03T09:47:38.029Z,40.67
2019-05-03T09:50:10.140Z,40.08
2019-05-03T09:52:40.830Z,40.08
2019-05-03T09:55:31.492Z,39.16
2019-05-03T09:58:02.075Z,38.75
2019-05-03T10:00:32.821Z,38.25
2019-05-03T10:03:05.586Z,38.86
2019-05-03T10:05:36.146Z,39.52
2019-05-03T10:08:06.737Z,39.13
2019-05-03T10:10:55.173Z,38.87
2019-05-03T10:13:27.138Z,38.69
2019-05-03T10:15:58.564Z,38.23
2019-05-03T10:18:29.183Z,38.73
2019-05-03T10:20:59.850Z,39.40
2019-05-03T10:23:35.741Z,38.77
2019-05-03T10:26:07.221Z,38.69
2019-05-03T10:28:37.869Z,37.52
2019-05-03T10:31:08.516Z,35.61
2019-05-03T10:33:40.685Z,35.74
2019-05-03T10:36:11.305Z,37.23
2019-05-03T10:38:41.855Z,36.23
2019-05-03T10:41:12.674Z,36.19
2019-05-03T10:43:45.187Z,36.02
2019-05-03T10:46:15.906Z,37.04
2019-05-03T10:48:46.901Z,38.57
2019-05-03T10:51:17.636Z,38.53
2019-05-03T10:53:50.013Z,40.35
2019-05-03T10:56:24.566Z,46.26
2019-05-03T10:59:01.835Z,48.40
2019-05-03T11:01:50.462Z,49.32
2019-05-03T11:04:21.148Z,51.44
2019-05-03T11:06:51.906Z,48.62
2019-05-03T11:09:22.517Z,48.17
2019-05-03T11:11:55.318Z,44.22
2019-05-03T11:14:25.630Z,41.03
2019-05-03T11:16:56.306Z,39.95
2019-05-03T11:19:26.939Z,38.78
2019-05-03T11:21:57.533Z,37.73
2019-05-03T11:24:28.165Z,37.48
2019-05-03T11:27:00.430Z,36.92
2019-05-03T11:29:31.040Z,36.78
2019-05-03T11:32:12.208Z,37.21
2019-05-03T11:34:44.950Z,37.42
2019-05-03T11:37:34.626Z,36.24
2019-05-03T11:40:06.757Z,35.31
2019-05-03T11:42:37.402Z,38.05
2019-05-03T11:45:08.233Z,39.42
2019-05-03T11:47:38.948Z,38.78
2019-05-03T11:50:10.848Z,39.63
2019-05-03T11:52:41.443Z,40.68
2019-05-03T11:55:15.939Z,40.15
2019-05-03T11:57:51.080Z,38.12
2019-05-03T12:00:25.333Z,37.96
2019-05-03T12:03:00.658Z,37.02
2019-05-03T12:05:31.964Z,37.35
2019-05-03T12:08:02.553Z,38.29
2019-05-03T12:10:49.557Z,38.13
2019-05-03T12:13:25.595Z,37.60
2019-05-03T12:15:56.679Z,37.46
2019-05-03T12:18:27.953Z,37.23
2019-05-03T12:21:00.272Z,37.54
2019-05-03T12:23:32.357Z,37.25
2019-05-03T12:26:09.452Z,35.87
2019-05-03T12:28:35.739Z,36.68
2019-05-03T12:31:06.463Z,38.21
2019-05-03T12:33:37.086Z,37.71
2019-05-03T12:36:08.103Z,37.27
2019-05-03T12:38:39.818Z,37.42
2019-05-03T12:41:10.499Z,37.89
2019-05-03T12:43:41.237Z,40.04
2019-05-03T12:46:11.892Z,38.56
2019-05-03T12:48:44.485Z,37.18
2019-05-03T12:51:15.413Z,37.80
2019-05-03T12:53:46.639Z,38.06
2019-05-03T12:56:23.199Z,39.05
2019-05-03T12:58:51.346Z,39.21
2019-05-03T13:01:26.414Z,37.96
2019-05-03T13:03:57.504Z,37.11
2019-05-03T13:06:29.772Z,36.60
2019-05-03T13:09:00.387Z,37.62
2019-05-03T13:11:34.715Z,36.80
2019-05-03T13:14:06.246Z,38.22
2019-05-03T13:16:36.985Z,37.78
2019-05-03T13:19:07.510Z,38.17
2019-05-03T13:21:38.201Z,38.83
2019-05-03T13:24:21.875Z,38.40
2019-05-03T13:26:41.261Z,36.45
2019-05-03T13:29:11.874Z,35.86
2019-05-03T13:31:57.481Z,34.45
2019-05-03T13:34:15.913Z,34.85
2019-05-03T13:36:48.484Z,36.17
2019-05-03T13:39:27.349Z,37.70
2019-05-03T13:42:09.967Z,38.17
2019-05-03T13:44:40.814Z,38.75
2019-05-03T13:47:40.982Z,38.12
2019-05-03T13:50:21.368Z,38.23
2019-05-03T13:52:56.124Z,36.94
2019-05-03T13:55:26.928Z,37.58
2019-05-03T13:57:57.949Z,36.49
2019-05-03T14:00:28.675Z,36.50
2019-05-03T14:02:59.291Z,34.21
2019-05-03T14:05:32.033Z,34.05
2019-05-03T14:08:04.839Z,34.01
2019-05-03T14:10:35.894Z,32.43
2019-05-03T14:13:07.394Z,31.85
2019-05-03T14:15:38.232Z,31.85
2019-05-03T14:18:08.992Z,33.14
2019-05-03T14:20:41.185Z,32.87
2019-05-03T14:23:11.901Z,32.20
2019-05-03T14:25:44.539Z,32.60
2019-05-03T14:28:14.914Z,31.02
2019-05-03T14:30:47.180Z,31.63
2019-05-03T14:33:17.914Z,31.30
2019-05-03T14:35:48.534Z,30.68
2019-05-03T14:38:19.280Z,31.03
2019-05-03T14:40:54.894Z,31.43
2019-05-03T14:43:25.058Z,31.12
2019-05-03T14:45:55.776Z,30.74
2019-05-03T14:48:28.994Z,30.99
2019-05-03T14:51:02.144Z,30.35
2019-05-03T14:53:34.841Z,30.31
2019-05-03T14:56:07.835Z,30.12
2019-05-03T14:58:56.682Z,30.37
2019-05-03T15:01:28.855Z,30.54
2019-05-03T15:03:59.496Z,31.03
2019-05-03T15:06:41.066Z,30.92
2019-05-03T15:09:11.708Z,32.28
2019-05-03T15:11:42.379Z,31.76
2019-05-03T15:14:14.550Z,31.80
2019-05-03T15:16:47.205Z,32.13
2019-05-03T15:19:18.027Z,32.40
2019-05-03T15:21:48.873Z,32.70
2019-05-03T15:24:19.579Z,33.27
2019-05-03T15:26:50.312Z,33.79
2019-05-03T15:29:20.944Z,34.98
2019-05-03T15:31:51.577Z,35.79
2019-05-03T15:34:25.794Z,35.81
2019-05-03T15:36:56.625Z,36.43
2019-05-03T15:39:27.187Z,36.72
2019-05-03T15:41:57.895Z,37.12
2019-05-03T15:44:46.537Z,38.45
2019-05-03T15:47:34.282Z,39.37
2019-05-03T15:50:06.170Z,39.67
2019-05-03T15:52:36.932Z,39.96
2019-05-03T15:55:08.722Z,40.08
2019-05-03T15:57:39.453Z,40.59
2019-05-03T16:00:11.836Z,40.08
2019-05-03T16:02:42.349Z,39.86
2019-05-03T16:05:15.457Z,41.80
2019-05-03T16:07:45.980Z,45.35
2019-05-03T16:10:16.572Z,47.25
2019-05-03T16:12:47.264Z,48.73
2019-05-03T16:15:17.913Z,50.05
2019-05-03T16:17:48.809Z,51.37
2019-05-03T16:20:19.556Z,52.49
2019-05-03T16:22:50.245Z,53.07
2019-05-03T16:25:25.224Z,53.53
2019-05-03T16:28:12.921Z,53.39
2019-05-03T16:30:48.067Z,53.60
2019-05-03T16:33:26.881Z,53.80
2019-05-03T16:35:51.454Z,54.03
2019-05-03T16:38:24.655Z,54.30
2019-05-03T16:40:54.931Z,54.22
2019-05-03T16:43:25.784Z,54.34
2019-05-03T16:45:56.602Z,54.20
2019-05-03T16:48:27.227Z,53.56
2019-05-03T16:50:57.856Z,53.86
2019-05-03T16:53:28.456Z,54.27
2019-05-03T16:55:59.146Z,54.57
2019-05-03T16:58:29.806Z,54.56
2019-05-03T17:01:00.506Z,54.81
2019-05-03T17:03:39.265Z,55.42
2019-05-03T17:06:22.666Z,55.85
2019-05-03T17:09:10.024Z,55.90
2019-05-03T17:11:40.834Z,55.78
2019-05-03T17:14:11.547Z,56.24
2019-05-03T17:16:42.210Z,56.28
2019-05-03T17:19:14.731Z,56.09
2019-05-03T17:21:45.372Z,55.87
2019-05-03T17:24:15.993Z,56.02
2019-05-03T17:26:46.591Z,56.15
2019-05-03T17:29:17.243Z,56.40
2019-05-03T17:31:47.896Z,56.89
2019-05-03T17:34:18.608Z,57.30
2019-05-03T17:36:49.242Z,58.01
2019-05-03T17:39:21.391Z,58.20
2019-05-03T17:42:00.314Z,58.33
2019-05-03T17:44:37.069Z,58.71
2019-05-03T17:47:08.783Z,59.05
2019-05-03T17:49:39.546Z,59.34
2019-05-03T17:52:11.813Z,59.80
2019-05-03T17:54:44.835Z,59.98
2019-05-03T17:57:26.529Z,60.04
2019-05-03T18:00:01.359Z,60.25
2019-05-03T18:02:39.486Z,60.60
2019-05-03T18:05:28.513Z,60.99
2019-05-03T18:08:00.662Z,61.29
2019-05-03T18:10:33.017Z,61.43
2019-05-03T18:13:03.827Z,61.75
2019-05-03T18:15:35.361Z,62.19
2019-05-03T18:18:06.139Z,62.26
2019-05-03T18:20:36.859Z,62.51
2019-05-03T18:23:07.602Z,63.11
2019-05-03T18:25:39.874Z,63.13
2019-05-03T18:28:10.444Z,63.19
2019-05-03T18:30:41.170Z,63.15
2019-05-03T18:33:11.875Z,63.18
2019-05-03T18:35:42.454Z,63.21
2019-05-03T18:38:14.812Z,63.63
2019-05-03T18:40:45.974Z,63.80
2019-05-03T18:43:27.485Z,64.06
2019-05-03T18:45:59.650Z,64.12
2019-05-03T18:48:30.370Z,64.45
2019-05-03T18:51:01.020Z,64.80
2019-05-03T18:53:31.748Z,64.71
2019-05-03T18:56:04.519Z,64.84
2019-05-03T18:58:34.853Z,65.41
2019-05-03T19:01:05.664Z,64.93
2019-05-03T19:03:36.322Z,65.18
2019-05-03T19:06:08.609Z,65.38
2019-05-03T19:08:44.768Z,65.72
2019-05-03T19:11:29.528Z,65.87
2019-05-03T19:14:01.812Z,66.21
2019-05-03T19:16:35.139Z,66.52
2019-05-03T19:19:06.606Z,66.45
2019-05-03T19:21:37.246Z,66.96
2019-05-03T19:24:08.151Z,66.74
2019-05-03T19:26:38.683Z,66.95
2019-05-03T19:29:09.325Z,66.79
2019-05-03T19:31:39.898Z,67.36
2019-05-03T19:34:10.487Z,67.34
2019-05-03T19:36:41.202Z,67.43
2019-05-03T19:39:11.833Z,67.76
2019-05-03T19:41:45.367Z,67.88
2019-05-03T19:44:17.534Z,68.31
2019-05-03T19:46:48.416Z,68.55
2019-05-03T19:49:19.536Z,69.16
2019-05-03T19:51:50.292Z,68.98
2019-05-03T19:54:20.922Z,69.66
2019-05-03T19:56:51.627Z,69.50
2019-05-03T19:59:40.423Z,70.09
2019-05-03T20:02:12.590Z,69.96
2019-05-03T20:05:01.245Z,70.27
2019-05-03T20:07:49.877Z,70.06
2019-05-03T20:10:21.018Z,70.54
2019-05-03T20:12:51.874Z,71.24
2019-05-03T20:15:22.575Z,71.00
2019-05-03T20:17:59.152Z,71.50
2019-05-03T20:20:25.513Z,71.77
2019-05-03T20:22:58.938Z,71.84
2019-05-03T20:25:28.926Z,71.97
2019-05-03T20:27:59.620Z,72.12
2019-05-03T20:30:31.452Z,72.14
2019-05-03T20:33:04.080Z,72.10
2019-05-03T20:35:35.650Z,72.22
2019-05-03T20:38:06.474Z,72.13
2019-05-03T20:40:37.162Z,72.23
2019-05-03T20:43:09.331Z,72.16
2019-05-03T20:45:44.604Z,72.49
2019-05-03T20:48:16.999Z,72.35
2019-05-03T20:50:49.085Z,72.35
2019-05-03T20:53:19.760Z,72.66
2019-05-03T20:55:50.471Z,72.98
2019-05-03T20:58:21.120Z,72.78
2019-05-03T21:00:52.079Z,72.56
2019-05-03T21:03:24.835Z,72.61
2019-05-03T21:05:55.362Z,72.67
2019-05-03T21:08:26.301Z,72.52
2019-05-03T21:10:56.933Z,72.54
2019-05-03T21:13:39.148Z,72.69
2019-05-03T21:16:16.780Z,72.97
2019-05-03T21:18:49.018Z,72.90
2019-05-03T21:21:39.411Z,72.92
2019-05-03T21:24:17.695Z,73.10
2019-05-03T21:26:48.401Z,72.98
2019-05-03T21:29:20.041Z,72.90
2019-05-03T21:31:50.711Z,73.04
2019-05-03T21:34:21.293Z,72.66
2019-05-03T21:36:52.073Z,72.97
2019-05-03T21:39:24.556Z,73.12
2019-05-03T21:41:56.835Z,73.20
2019-05-03T21:44:29.220Z,73.33
2019-05-03T21:47:01.378Z,73.50
2019-05-03T21:49:43.263Z,73.24
2019-05-03T21:52:14.725Z,73.44
2019-05-03T21:54:45.553Z,73.71
2019-05-03T21:57:16.653Z,73.50
2019-05-03T21:59:47.316Z,73.91
2019-05-03T22:02:18.047Z,73.90
2019-05-03T22:04:48.705Z,74.25
2019-05-03T22:07:19.441Z,74.51
2019-05-03T22:09:50.040Z,74.91
2019-05-03T22:12:20.666Z,75.03
2019-05-03T22:14:54.515Z,74.93
2019-05-03T22:17:44.758Z,74.37
2019-05-03T22:20:17.275Z,74.58
2019-05-03T22:22:49.566Z,74.48
2019-05-03T22:25:21.832Z,74.53
2019-05-03T22:27:54.604Z,74.35
2019-05-03T22:30:26.854Z,74.18
2019-05-03T22:32:57.283Z,74.43
2019-05-03T22:35:27.997Z,74.72
2019-05-03T22:37:58.516Z,75.06
2019-05-03T22:40:29.113Z,75.33
2019-05-03T22:42:59.821Z,74.89
2019-05-03T22:45:30.438Z,74.76
2019-05-03T22:48:01.013Z,74.70
2019-05-03T22:50:31.695Z,74.38
2019-05-03T22:53:02.302Z,74.27
2019-05-03T22:55:33.087Z,74.27
2019-05-03T22:58:05.100Z,74.29
2019-05-03T23:00:35.953Z,74.06
2019-05-03T23:03:06.728Z,73.96
2019-05-03T23:05:37.593Z,73.83
2019-05-03T23:08:08.187Z,73.76
2019-05-03T23:10:38.895Z,73.50
2019-05-03T23:13:09.512Z,72.91
2019-05-03T23:15:40.264Z,73.15
2019-05-03T23:18:10.817Z,73.32
2019-05-03T23:20:59.159Z,73.40
2019-05-03T23:23:40.816Z,73.61
2019-05-03T23:26:12.393Z,73.92
2019-05-03T23:28:44.593Z,74.22
2019-05-03T23:31:15.452Z,74.25
2019-05-03T23:33:46.063Z,74.49
2019-05-03T23:36:16.741Z,75.03
2019-05-03T23:38:47.393Z,75.48
2019-05-03T23:41:17.966Z,75.95
2019-05-03T23:43:48.641Z,76.09
2019-05-03T23:46:20.828Z,76.52
2019-05-03T23:48:51.541Z,76.74
2019-05-03T23:51:40.372Z,77.20
2019-05-03T23:54:11.060Z,77.33
2019-05-03T23:56:41.687Z,77.41
2019-05-03T23:59:12.297Z,77.46
